Main page
METAR-TAF:

METAR-TAF

Airports :

Chuuk International Airport

Weno, Micronesia

latitude: 07-28N, longitude: 151-51E, elevation: 3 m

Current weather observation

The report was made 1 hour and 6 minutes ago, at 03:53 UTC
Wind 9 kt from the East/Northeast
Temperature 29°C
Humidity 84%
Pressure 1009 hPa
Visibility: 24.1 km
Few clouds at a height of 1400 ft, Cumulonimbus.
Broken clouds at a height of 12000 ft
Overcast at a height of 28000 ft

METAR: PTKK 240353Z 06009KT 15SM FEW014CB BKN120 OVC280 29/26 A2981 RMK CB S MOV SW SLP096 T02860259

Time: 14:59 (04:59 UTC)

Forecast

The report was made 5 hours and 28 minutes ago, at 23:31 UTC
Forecast valid from 24 at 00 UTC to 24 at 24 UTC
Wind 15 kt from the Northeast
Visibility: 10 km
Few clouds at a height of 1400 ft
showers in vicinity

TAF: PTKK 232331Z 2400/2424 04015KT P6SM VCSH FEW014

Weather observations and forecasts of more than 4000 airports (METAR and TAF reports).

The available stations are represented by yellow and red dots on the map.

Hover mouse over dot to see the name of the station.

Then click to see weather observations and forecasts.

To change the map : click on the green buttons with a black cross to zoom in, on the green button with a dash to zoom out, or on the green arrows for adjacent maps.


METAR-TAF: